Time;durP1;ratioP1;P1;durP2;ratioP2;P2;SDS_P1;SDS_P2;PMS_P1;PMS_P2;Temp;Humidity;BMP_temperature;BMP_pressure;BME280_temperature;BME280_humidity;BME280_pressure;Samples;Min_cycle;Max_cycle;Signal;HPM_P1;HPM_P2
2022/07/07 00:00:08;;;;;;;;;;;;;;;;;;5009781;28;1317;-72
2022/07/07 00:02:34;;;;;;;;;;;;;;;;;;5010598;28;2249;-72
2022/07/07 00:05:02;;;;;;;;;;;;;;;;;;4992604;28;1086;-72
2022/07/07 00:07:29;;;;;;;;;;;;;;;;;;4992930;28;886;-72
2022/07/07 00:09:55;;;;;;;;;;;;;;;;;;4995234;28;1107;-72
2022/07/07 00:12:21;;;;;;;;;;;;;;;;;;4995115;28;1914;-72
2022/07/07 00:14:47;;;;;;;;;;;;;;;;;;4995277;28;763;-72
2022/07/07 00:17:13;;;;;;;;;;;;;;;;;;4994471;28;999;-72
2022/07/07 00:19:40;;;;;;;;;;;;;;;;;;4994843;28;1130;-72
2022/07/07 00:22:07;;;;;;;;;;;;;;;;;;4995023;28;1298;-72
2022/07/07 00:24:33;;;;;;;;;;;;;;;;;;4995563;28;770;-72
2022/07/07 00:26:59;;;;;;;;;;;;;;;;;;4993005;28;1369;-72
2022/07/07 00:29:26;;;;;;;;;;;;;;;;;;4994903;28;1118;-72
2022/07/07 00:31:53;;;;;;;;;;;;;;;;;;4994744;28;1918;-72
2022/07/07 00:34:19;;;;;;;;;;;;;;;;;;4994879;28;861;-72
2022/07/07 00:36:45;;;;;;;;;;;;;;;;;;4992896;28;1391;-73
2022/07/07 00:39:13;;;;;;;;;;;;;;;;;;5009524;28;1158;-72
2022/07/07 00:41:39;;;;;;;;;;;;;;;;;;4994733;28;1388;-72
2022/07/07 00:44:06;;;;;;;;;;;;;;;;;;4994618;28;1103;-72
2022/07/07 00:46:36;;;;;;;;;;;;;;;;;;4994125;28;1310;-72
2022/07/07 00:49:03;;;;;;;;;;;;;;;;;;4994354;28;949;-72
2022/07/07 00:51:29;;;;;;;;;;;;;;;;;;5009322;28;1911;-72
2022/07/07 00:53:55;;;;;;;;;;;;;;;;;;4994311;28;996;-72
2022/07/07 00:56:22;;;;;;;;;;;;;;;;;;4992262;28;1149;-72
2022/07/07 00:58:49;;;;;;;;;;;;;;;;;;4994187;28;960;-72
2022/07/07 01:01:15;;;;;;;;;;;;;;;;;;4992568;28;1325;-72
2022/07/07 01:03:41;;;;;;;;;;;;;;;;;;4994138;28;1080;-72
2022/07/07 01:06:07;;;;;;;;;;;;;;;;;;4993396;28;1063;-72
2022/07/07 01:08:33;;;;;;;;;;;;;;;;;;4994087;28;1051;-72
2022/07/07 01:11:00;;;;;;;;;;;;;;;;;;4993725;28;1339;-72
2022/07/07 01:13:27;;;;;;;;;;;;;;;;;;4992707;28;1918;-72
2022/07/07 01:15:53;;;;;;;;;;;;;;;;;;4993873;28;1067;-72
2022/07/07 01:18:19;;;;;;;;;;;;;;;;;;4993196;28;818;-72
2022/07/07 01:20:47;;;;;;;;;;;;;;;;;;4992546;28;1522;-72
2022/07/07 01:23:15;;;;;;;;;;;;;;;;;;4994018;28;1060;-72
2022/07/07 01:25:41;;;;;;;;;;;;;;;;;;4993957;28;1123;-72
2022/07/07 01:28:08;;;;;;;;;;;;;;;;;;4992912;28;1064;-71
2022/07/07 01:30:34;;;;;;;;;;;;;;;;;;4993583;28;1326;-71
2022/07/07 01:33:00;;;;;;;;;;;;;;;;;;4993628;28;1981;-71
2022/07/07 01:35:26;;;;;;;;;;;;;;;;;;4993755;28;860;-72
2022/07/07 01:37:53;;;;;;;;;;;;;;;;;;4993074;28;1169;-71
2022/07/07 01:40:20;;;;;;;;;;;;;;;;;;4992132;28;1444;-71
2022/07/07 01:42:46;;;;;;;;;;;;;;;;;;4993757;28;1044;-71
2022/07/07 01:45:12;;;;;;;;;;;;;;;;;;4993458;28;1075;-72
2022/07/07 01:47:39;;;;;;;;;;;;;;;;;;4991718;28;1125;-72
2022/07/07 01:50:05;;;;;;;;;;;;;;;;;;4993452;28;1475;-72
2022/07/07 01:52:31;;;;;;;;;;;;;;;;;;4993707;28;1918;-71
2022/07/07 01:54:58;;;;;;;;;;;;;;;;;;4993460;28;1124;-72
2022/07/07 01:57:25;;;;;;;;;;;;;;;;;;4992796;28;1076;-71
2022/07/07 01:59:51;;;;;;;;;;;;;;;;;;5004832;28;1445;-72
2022/07/07 02:02:17;;;;;;;;;;;;;;;;;;5012754;28;1340;-71
2022/07/07 02:04:44;;;;;;;;;;;;;;;;;;5012913;28;663;-72
2022/07/07 02:07:10;;;;;;;;;;;;;;;;;;5013118;28;1114;-72
2022/07/07 02:09:36;;;;;;;;;;;;;;;;;;5013221;28;883;-71
2022/07/07 02:12:03;;;;;;;;;;;;;;;;;;5012513;28;1974;-71
2022/07/07 02:14:31;;;;;;;;;;;;;;;;;;5012816;28;937;-71
2022/07/07 02:16:58;;;;;;;;;;;;;;;;;;5005153;28;1442;-72
2022/07/07 02:19:24;;;;;;;;;;;;;;;;;;4992647;28;1673;-72
2022/07/07 02:21:50;;;;;;;;;;;;;;;;;;4992657;28;1400;-72
2022/07/07 02:24:16;;;;;;;;;;;;;;;;;;4993036;28;1169;-72
2022/07/07 02:26:42;;;;;;;;;;;;;;;;;;4992121;28;1115;-72
2022/07/07 02:29:09;;;;;;;;;;;;;;;;;;4992390;28;1099;-71
2022/07/07 02:31:37;;;;;;;;;;;;;;;;;;4992454;28;1919;-71
2022/07/07 02:34:03;;;;;;;;;;;;;;;;;;4992400;28;1108;-71
2022/07/07 02:36:29;;;;;;;;;;;;;;;;;;4991844;28;818;-71
2022/07/07 02:38:55;;;;;;;;;;;;;;;;;;4992706;28;973;-71
2022/07/07 02:41:22;;;;;;;;;;;;;;;;;;4992620;28;1397;-72
2022/07/07 02:43:48;;;;;;;;;;;;;;;;;;4992305;28;1067;-71
2022/07/07 02:46:15;;;;;;;;;;;;;;;;;;4991826;28;1056;-71
2022/07/07 02:48:42;;;;;;;;;;;;;;;;;;4992309;28;929;-71
2022/07/07 02:51:09;;;;;;;;;;;;;;;;;;4992257;28;1375;-71
2022/07/07 02:53:36;;;;;;;;;;;;;;;;;;4992012;28;1978;-71
2022/07/07 02:56:02;;;;;;;;;;;;;;;;;;4992515;28;831;-71
2022/07/07 02:58:28;;;;;;;;;;;;;;;;;;4991544;28;1119;-71
2022/07/07 03:00:55;;;;;;;;;;;;;;;;;;4992360;28;1305;-71
2022/07/07 03:03:21;;;;;;;;;;;;;;;;;;4992217;28;957;-71
2022/07/07 03:05:49;;;;;;;;;;;;;;;;;;4992274;28;1138;-71
2022/07/07 03:08:15;;;;;;;;;;;;;;;;;;4991524;28;1080;-71
2022/07/07 03:10:41;;;;;;;;;;;;;;;;;;4991894;28;1333;-71
2022/07/07 03:13:07;;;;;;;;;;;;;;;;;;4992165;28;1935;-71
2022/07/07 03:15:33;;;;;;;;;;;;;;;;;;5007353;28;1107;-71
2022/07/07 03:18:00;;;;;;;;;;;;;;;;;;5013280;28;2065;-71
2022/07/07 03:20:26;;;;;;;;;;;;;;;;;;4991754;28;1403;-72
2022/07/07 03:22:53;;;;;;;;;;;;;;;;;;4992191;28;1063;-71
2022/07/07 03:25:20;;;;;;;;;;;;;;;;;;4996487;28;2093;-71
2022/07/07 03:27:46;;;;;;;;;;;;;;;;;;5006077;28;1347;-71
2022/07/07 03:30:12;;;;;;;;;;;;;;;;;;5007054;28;1313;-71
2022/07/07 03:32:38;;;;;;;;;;;;;;;;;;4991679;28;1914;-71
2022/07/07 03:35:07;;;;;;;;;;;;;;;;;;4991672;28;957;-70
2022/07/07 03:37:34;;;;;;;;;;;;;;;;;;4991313;28;708;-71
2022/07/07 03:40:01;;;;;;;;;;;;;;;;;;4992026;28;897;-71
2022/07/07 03:42:27;;;;;;;;;;;;;;;;;;4992457;28;1101;-71
2022/07/07 03:44:54;;;;;;;;;;;;;;;;;;4994390;28;1173;-71
2022/07/07 03:47:20;;;;;;;;;;;;;;;;;;4995427;28;1076;-71
2022/07/07 03:49:46;;;;;;;;;;;;;;;;;;4995851;28;1064;-70
2022/07/07 03:52:12;;;;;;;;;;;;;;;;;;4995657;28;1906;-70
2022/07/07 03:54:38;;;;;;;;;;;;;;;;;;4995540;28;1107;-70
2022/07/07 03:57:06;;;;;;;;;;;;;;;;;;4995236;28;893;-70
2022/07/07 03:59:32;;;;;;;;;;;;;;;;;;4995912;28;1106;-71
2022/07/07 04:01:58;;;;;;;;;;;;;;;;;;4995600;28;1287;-70
2022/07/07 04:04:25;;;;;;;;;;;;;;;;;;4995359;28;833;-70
2022/07/07 04:06:51;;;;;;;;;;;;;;;;;;4994937;28;874;-70
2022/07/07 04:09:17;;;;;;;;;;;;;;;;;;4999781;28;1548;-70
2022/07/07 04:11:43;;;;;;;;;;;;;;;;;;5015384;28;1441;-70
2022/07/07 04:14:11;;;;;;;;;;;;;;;;;;5015192;28;1914;-70
2022/07/07 04:16:38;;;;;;;;;;;;;;;;;;5013566;28;1193;-70
2022/07/07 04:19:04;;;;;;;;;;;;;;;;;;5015400;28;873;-70
2022/07/07 04:21:30;;;;;;;;;;;;;;;;;;5014818;28;1341;-70
2022/07/07 04:23:56;;;;;;;;;;;;;;;;;;5015041;28;1076;-70
2022/07/07 04:26:22;;;;;;;;;;;;;;;;;;5012809;28;1638;-70
2022/07/07 04:28:48;;;;;;;;;;;;;;;;;;5014869;28;873;-70
2022/07/07 04:31:16;;;;;;;;;;;;;;;;;;5013081;28;1291;-70
2022/07/07 04:33:42;;;;;;;;;;;;;;;;;;5014210;28;1919;-70
2022/07/07 04:36:11;;;;;;;;;;;;;;;;;;5029207;28;1209;-70
2022/07/07 04:38:37;;;;;;;;;;;;;;;;;;5012512;28;1323;-70
2022/07/07 04:41:03;;;;;;;;;;;;;;;;;;5011244;28;1513;-71
2022/07/07 04:43:29;;;;;;;;;;;;;;;;;;5012577;28;1358;-70
2022/07/07 04:45:55;;;;;;;;;;;;;;;;;;5029304;28;1486;-70
2022/07/07 04:48:23;;;;;;;;;;;;;;;;;;5013871;28;1362;-70
2022/07/07 04:50:49;;;;;;;;;;;;;;;;;;5015894;28;1364;-70
2022/07/07 04:53:15;;;;;;;;;;;;;;;;;;5012722;28;1915;-70
2022/07/07 04:55:41;;;;;;;;;;;;;;;;;;4998760;28;1114;-70
2022/07/07 04:58:08;;;;;;;;;;;;;;;;;;4993809;28;1064;-70
2022/07/07 05:00:34;;;;;;;;;;;;;;;;;;4994420;28;1364;-70
2022/07/07 05:03:00;;;;;;;;;;;;;;;;;;4994320;28;1120;-70
2022/07/07 05:05:27;;;;;;;;;;;;;;;;;;4994335;28;842;-70
2022/07/07 05:07:53;;;;;;;;;;;;;;;;;;4993837;28;716;-70
2022/07/07 05:10:20;;;;;;;;;;;;;;;;;;4994324;28;1279;-70
2022/07/07 05:12:46;;;;;;;;;;;;;;;;;;4993013;28;1918;-70
2022/07/07 05:15:12;;;;;;;;;;;;;;;;;;4994248;28;1107;-70
2022/07/07 05:17:38;;;;;;;;;;;;;;;;;;5007725;28;1141;-70
2022/07/07 05:20:05;;;;;;;;;;;;;;;;;;5011070;28;1489;-70
2022/07/07 05:22:32;;;;;;;;;;;;;;;;;;5009751;28;1324;-69
2022/07/07 05:24:59;;;;;;;;;;;;;;;;;;5012047;28;1464;-69
2022/07/07 05:27:26;;;;;;;;;;;;;;;;;;5019301;28;1515;-70
2022/07/07 05:29:52;;;;;;;;;;;;;;;;;;5010225;28;1364;-69
2022/07/07 05:32:18;;;;;;;;;;;;;;;;;;5005054;28;1547;-69
2022/07/07 05:34:45;;;;;;;;;;;;;;;;;;5010716;28;1977;-69
2022/07/07 05:37:11;;;;;;;;;;;;;;;;;;5009869;28;1394;-69
2022/07/07 05:39:38;;;;;;;;;;;;;;;;;;5010770;28;1336;-69
2022/07/07 05:42:05;;;;;;;;;;;;;;;;;;5010560;28;1348;-69
2022/07/07 05:44:31;;;;;;;;;;;;;;;;;;4988986;28;1208;-70
2022/07/07 05:46:57;;;;;;;;;;;;;;;;;;4994914;28;1421;-70
2022/07/07 05:49:23;;;;;;;;;;;;;;;;;;5000279;28;1373;-70
2022/07/07 05:51:49;;;;;;;;;;;;;;;;;;5000644;28;1428;-69
2022/07/07 05:54:15;;;;;;;;;;;;;;;;;;5008210;28;1911;-69
2022/07/07 05:56:43;;;;;;;;;;;;;;;;;;5009924;28;1426;-70
2022/07/07 05:59:09;;;;;;;;;;;;;;;;;;5010093;28;1365;-69
2022/07/07 06:01:35;;;;;;;;;;;;;;;;;;5009982;28;1421;-69
2022/07/07 06:04:01;;;;;;;;;;;;;;;;;;5009128;28;1491;-69
2022/07/07 06:06:28;;;;;;;;;;;;;;;;;;5005517;28;1526;-69
2022/07/07 06:08:54;;;;;;;;;;;;;;;;;;5011448;28;1426;-69
2022/07/07 06:11:20;;;;;;;;;;;;;;;;;;5012016;28;1438;-69
2022/07/07 06:13:48;;;;;;;;;;;;;;;;;;4995508;28;1989;-69
2022/07/07 06:16:14;;;;;;;;;;;;;;;;;;5011433;28;1061;-69
2022/07/07 06:18:40;;;;;;;;;;;;;;;;;;5010846;28;1393;-69
2022/07/07 06:21:07;;;;;;;;;;;;;;;;;;5009993;28;1463;-69
2022/07/07 06:23:33;;;;;;;;;;;;;;;;;;5005421;28;1172;-69
2022/07/07 06:26:02;;;;;;;;;;;;;;;;;;4992532;28;1068;-69
2022/07/07 06:28:28;;;;;;;;;;;;;;;;;;4991632;28;767;-69
2022/07/07 06:30:56;;;;;;;;;;;;;;;;;;5009580;28;1395;-69
2022/07/07 06:33:22;;;;;;;;;;;;;;;;;;5011224;28;1976;-69
2022/07/07 06:35:48;;;;;;;;;;;;;;;;;;5009445;28;1408;-69
2022/07/07 06:38:14;;;;;;;;;;;;;;;;;;5011131;28;1190;-69
2022/07/07 06:40:40;;;;;;;;;;;;;;;;;;4998387;28;1509;-69
2022/07/07 06:43:07;;;;;;;;;;;;;;;;;;5008687;28;1425;-69
2022/07/07 06:45:33;;;;;;;;;;;;;;;;;;5005332;28;1479;-69
2022/07/07 06:48:01;;;;;;;;;;;;;;;;;;5007006;28;1401;-69
2022/07/07 06:50:27;;;;;;;;;;;;;;;;;;4997099;28;1432;-69
2022/07/07 06:52:53;;;;;;;;;;;;;;;;;;4990553;28;1915;-70
2022/07/07 06:55:19;;;;;;;;;;;;;;;;;;4991258;28;1147;-69
2022/07/07 06:57:45;;;;;;;;;;;;;;;;;;4990567;28;1101;-69
2022/07/07 07:00:12;;;;;;;;;;;;;;;;;;4991073;28;1488;-69
2022/07/07 07:02:43;;;;;;;;;;;;;;;;;;4997038;28;1389;-69
2022/07/07 07:05:10;;;;;;;;;;;;;;;;;;5010608;28;1238;-70
2022/07/07 07:07:36;;;;;;;;;;;;;;;;;;5009478;28;699;-69
2022/07/07 07:10:03;;;;;;;;;;;;;;;;;;5013078;28;1114;-70
2022/07/07 07:12:29;;;;;;;;;;;;;;;;;;5008442;28;1133;-70
2022/07/07 07:14:55;;;;;;;;;;;;;;;;;;5004797;28;1914;-71
2022/07/07 07:17:21;;;;;;;;;;;;;;;;;;5027687;28;835;-70
2022/07/07 07:19:48;;;;;;;;;;;;;;;;;;4993922;28;1004;-69
2022/07/07 07:22:15;;;;;;;;;;;;;;;;;;5004982;28;1389;-70
2022/07/07 07:24:41;;;;;;;;;;;;;;;;;;5005936;28;1303;-69
2022/07/07 07:27:08;;;;;;;;;;;;;;;;;;4993501;28;1195;-70
2022/07/07 07:29:34;;;;;;;;;;;;;;;;;;4991276;28;1143;-69
2022/07/07 07:32:00;;;;;;;;;;;;;;;;;;4990345;28;1301;-69
2022/07/07 07:34:26;;;;;;;;;;;;;;;;;;4995708;28;1915;-69
2022/07/07 07:36:52;;;;;;;;;;;;;;;;;;5007478;28;1474;-70
2022/07/07 07:39:20;;;;;;;;;;;;;;;;;;5005662;28;1142;-69
2022/07/07 07:41:46;;;;;;;;;;;;;;;;;;5014405;28;1393;-69
2022/07/07 07:44:12;;;;;;;;;;;;;;;;;;5010051;28;1125;-69
2022/07/07 07:46:38;;;;;;;;;;;;;;;;;;5008396;28;1051;-69
2022/07/07 07:49:06;;;;;;;;;;;;;;;;;;5008217;28;1383;-70
2022/07/07 07:51:32;;;;;;;;;;;;;;;;;;4995091;28;1465;-69
2022/07/07 07:53:58;;;;;;;;;;;;;;;;;;4989959;28;1986;-68
2022/07/07 07:56:26;;;;;;;;;;;;;;;;;;4998124;28;1394;-71
2022/07/07 07:58:52;;;;;;;;;;;;;;;;;;5006804;28;1119;-69
2022/07/07 08:01:18;;;;;;;;;;;;;;;;;;5009495;28;1407;-68
2022/07/07 08:03:44;;;;;;;;;;;;;;;;;;5023530;28;1445;-69
2022/07/07 08:06:11;;;;;;;;;;;;;;;;;;5004968;28;1456;-69
2022/07/07 08:08:37;;;;;;;;;;;;;;;;;;4996623;28;1441;-69
2022/07/07 08:11:04;;;;;;;;;;;;;;;;;;5007326;28;1489;-69
2022/07/07 08:13:31;;;;;;;;;;;;;;;;;;5007516;28;1914;-69
2022/07/07 08:15:57;;;;;;;;;;;;;;;;;;5024746;28;1317;-69
2022/07/07 08:18:26;;;;;;;;;;;;;;;;;;5006930;28;1363;-69
2022/07/07 08:20:53;;;;;;;;;;;;;;;;;;4996930;28;1599;-69
2022/07/07 08:23:19;;;;;;;;;;;;;;;;;;5003318;28;1405;-69
2022/07/07 08:25:45;;;;;;;;;;;;;;;;;;4999946;28;1206;-69
2022/07/07 08:28:11;;;;;;;;;;;;;;;;;;4997314;28;1421;-69
2022/07/07 08:30:39;;;;;;;;;;;;;;;;;;4998365;28;1335;-69
2022/07/07 08:33:05;;;;;;;;;;;;;;;;;;5011996;28;878;-69
2022/07/07 08:35:32;;;;;;;;;;;;;;;;;;5011626;28;1986;-70
2022/07/07 08:37:58;;;;;;;;;;;;;;;;;;5010665;28;1119;-70
2022/07/07 08:40:24;;;;;;;;;;;;;;;;;;5011690;28;1490;-69
2022/07/07 08:42:50;;;;;;;;;;;;;;;;;;5002611;28;976;-69
2022/07/07 08:45:16;;;;;;;;;;;;;;;;;;5006553;28;1420;-69
2022/07/07 08:47:44;;;;;;;;;;;;;;;;;;5006437;28;1211;-69
2022/07/07 08:50:10;;;;;;;;;;;;;;;;;;5011114;28;1442;-69
2022/07/07 08:52:36;;;;;;;;;;;;;;;;;;5001881;28;1345;-69
2022/07/07 08:55:03;;;;;;;;;;;;;;;;;;5011213;28;1915;-69
2022/07/07 08:57:29;;;;;;;;;;;;;;;;;;5011582;28;1095;-69
2022/07/07 08:59:56;;;;;;;;;;;;;;;;;;5012336;28;1001;-69
2022/07/07 09:02:22;;;;;;;;;;;;;;;;;;5010820;28;1447;-69
2022/07/07 09:04:50;;;;;;;;;;;;;;;;;;5011750;28;1412;-70
2022/07/07 09:07:16;;;;;;;;;;;;;;;;;;5011172;28;1407;-69
2022/07/07 09:09:43;;;;;;;;;;;;;;;;;;5003347;28;1537;-69
2022/07/07 09:12:10;;;;;;;;;;;;;;;;;;5012958;28;1454;-69
2022/07/07 09:14:37;;;;;;;;;;;;;;;;;;5011118;28;1975;-69
2022/07/07 09:17:04;;;;;;;;;;;;;;;;;;4994145;28;1115;-69
2022/07/07 09:19:30;;;;;;;;;;;;;;;;;;4992506;28;874;-70
2022/07/07 09:21:58;;;;;;;;;;;;;;;;;;4991734;28;1278;-69
2022/07/07 09:24:24;;;;;;;;;;;;;;;;;;4992241;28;1076;-69
2022/07/07 09:26:52;;;;;;;;;;;;;;;;;;4990242;28;1018;-69
2022/07/07 09:29:19;;;;;;;;;;;;;;;;;;4998126;28;1386;-69
2022/07/07 09:31:51;;;;;;;;;;;;;;;;;;5010399;28;1476;-69
2022/07/07 09:34:18;;;;;;;;;;;;;;;;;;5008428;28;1918;-69
2022/07/07 09:39:39;;;;;;;;;;;;;;;;;;5010820;28;1118;-69
2022/07/07 09:42:17;;;;;;;;;;;;;;;;;;5010688;28;1329;-69
2022/07/07 09:44:43;;;;;;;;;;;;;;;;;;5010587;28;1460;-69
2022/07/07 09:47:09;;;;;;;;;;;;;;;;;;5010680;28;1186;-69
2022/07/07 09:49:35;;;;;;;;;;;;;;;;;;5027638;28;1099;-69
2022/07/07 09:52:04;;;;;;;;;;;;;;;;;;5019806;28;1735;-69
2022/07/07 09:54:31;;;;;;;;;;;;;;;;;;5006135;28;1914;-69
2022/07/07 09:56:58;;;;;;;;;;;;;;;;;;5008767;28;1385;-69
2022/07/07 09:59:24;;;;;;;;;;;;;;;;;;5017568;28;1537;-69
2022/07/07 10:01:52;;;;;;;;;;;;;;;;;;4998343;28;1413;-69
2022/07/07 10:04:19;;;;;;;;;;;;;;;;;;5006370;28;1522;-69
2022/07/07 10:06:45;;;;;;;;;;;;;;;;;;5009508;28;1823;-69
2022/07/07 10:09:12;;;;;;;;;;;;;;;;;;5011519;28;885;-69
2022/07/07 10:11:39;;;;;;;;;;;;;;;;;;5011634;28;1367;-69
2022/07/07 10:14:16;;;;;;;;;;;;;;;;;;5007222;28;2082;-69
2022/07/07 10:16:43;;;;;;;;;;;;;;;;;;5004602;28;1471;-69
2022/07/07 10:19:10;;;;;;;;;;;;;;;;;;5004235;28;1142;-69
2022/07/07 10:21:36;;;;;;;;;;;;;;;;;;5016655;28;1381;-69
2022/07/07 10:24:02;;;;;;;;;;;;;;;;;;5010909;28;1614;-69
2022/07/07 10:26:35;;;;;;;;;;;;;;;;;;5008876;28;1441;-69
2022/07/07 10:29:01;;;;;;;;;;;;;;;;;;4993628;28;1381;-69
2022/07/07 10:31:29;;;;;;;;;;;;;;;;;;5003477;28;1578;-69
2022/07/07 10:33:56;;;;;;;;;;;;;;;;;;5006280;28;1146;-69
2022/07/07 10:36:23;;;;;;;;;;;;;;;;;;5010597;28;2001;-69
2022/07/07 10:38:51;;;;;;;;;;;;;;;;;;5010932;28;838;-70
2022/07/07 10:41:17;;;;;;;;;;;;;;;;;;5009909;28;1390;-69
2022/07/07 10:43:44;;;;;;;;;;;;;;;;;;5012730;28;1393;-69
2022/07/07 10:46:10;;;;;;;;;;;;;;;;;;5007916;28;1370;-69
2022/07/07 10:48:45;;;;;;;;;;;;;;;;;;5006313;28;1171;-69
2022/07/07 10:51:15;;;;;;;;;;;;;;;;;;5010465;28;1295;-70
2022/07/07 10:53:41;;;;;;;;;;;;;;;;;;5010516;28;1052;-69
2022/07/07 10:56:07;;;;;;;;;;;;;;;;;;5009841;28;1974;-69
2022/07/07 10:58:52;;;;;;;;;;;;;;;;;;5008245;28;1060;-69
2022/07/07 11:01:18;;;;;;;;;;;;;;;;;;5010282;28;1384;-69
2022/07/07 11:03:45;;;;;;;;;;;;;;;;;;5006238;28;1429;-69
2022/07/07 11:06:12;;;;;;;;;;;;;;;;;;5007683;28;1385;-69
2022/07/07 11:08:39;;;;;;;;;;;;;;;;;;5009158;28;1096;-69
2022/07/07 11:11:06;;;;;;;;;;;;;;;;;;5009678;28;1385;-69
2022/07/07 11:13:33;;;;;;;;;;;;;;;;;;4997863;28;915;-69
2022/07/07 11:16:15;;;;;;;;;;;;;;;;;;4995983;28;1919;-69
2022/07/07 11:18:42;;;;;;;;;;;;;;;;;;5008785;28;1336;-69
2022/07/07 11:21:09;;;;;;;;;;;;;;;;;;5009630;28;1432;-69
2022/07/07 11:23:43;;;;;;;;;;;;;;;;;;5010181;28;1114;-70
2022/07/07 11:26:09;;;;;;;;;;;;;;;;;;4989437;28;1265;-69
2022/07/07 11:28:36;;;;;;;;;;;;;;;;;;4991194;28;907;-70
2022/07/07 11:31:06;;;;;;;;;;;;;;;;;;4990534;28;1329;-68
2022/07/07 11:33:32;;;;;;;;;;;;;;;;;;4990711;28;1060;-69
2022/07/07 11:35:58;;;;;;;;;;;;;;;;;;4990642;28;1969;-69
2022/07/07 11:38:30;;;;;;;;;;;;;;;;;;4990077;28;1024;-69
2022/07/07 11:40:56;;;;;;;;;;;;;;;;;;4996570;28;1500;-69
2022/07/07 11:43:23;;;;;;;;;;;;;;;;;;5000461;28;1411;-69
2022/07/07 11:45:49;;;;;;;;;;;;;;;;;;4994047;28;1123;-69
2022/07/07 11:48:15;;;;;;;;;;;;;;;;;;5006630;28;1390;-69
2022/07/07 11:50:42;;;;;;;;;;;;;;;;;;5007552;28;1401;-69
2022/07/07 11:53:08;;;;;;;;;;;;;;;;;;5009799;28;1193;-69
2022/07/07 11:55:35;;;;;;;;;;;;;;;;;;5010275;28;2299;-68
2022/07/07 11:58:02;;;;;;;;;;;;;;;;;;5009454;28;1637;-68
2022/07/07 12:00:29;;;;;;;;;;;;;;;;;;5009689;28;1515;-69
2022/07/07 12:02:56;;;;;;;;;;;;;;;;;;5007240;28;1437;-69
2022/07/07 12:05:23;;;;;;;;;;;;;;;;;;5010190;28;1368;-69
2022/07/07 12:07:53;;;;;;;;;;;;;;;;;;4997488;28;1354;-69
2022/07/07 12:10:20;;;;;;;;;;;;;;;;;;5009789;28;1381;-69
2022/07/07 12:12:55;;;;;;;;;;;;;;;;;;4995297;28;1322;-69
2022/07/07 12:15:21;;;;;;;;;;;;;;;;;;5010066;28;1919;-69
2022/07/07 12:17:48;;;;;;;;;;;;;;;;;;5011369;28;1131;-69
2022/07/07 12:20:15;;;;;;;;;;;;;;;;;;5013997;28;1294;-68
2022/07/07 12:22:43;;;;;;;;;;;;;;;;;;5013310;28;957;-69
2022/07/07 12:25:10;;;;;;;;;;;;;;;;;;5012808;28;1049;-69
2022/07/07 12:27:36;;;;;;;;;;;;;;;;;;5011978;28;1128;-69
2022/07/07 12:30:05;;;;;;;;;;;;;;;;;;5013482;28;1356;-70
2022/07/07 12:32:31;;;;;;;;;;;;;;;;;;5013611;28;1413;-69
2022/07/07 12:34:57;;;;;;;;;;;;;;;;;;5013521;28;1910;-69
2022/07/07 12:37:38;;;;;;;;;;;;;;;;;;5013160;28;1107;-69
2022/07/07 12:40:09;;;;;;;;;;;;;;;;;;5013398;28;1307;-69
2022/07/07 12:42:36;;;;;;;;;;;;;;;;;;5013526;28;914;-69
2022/07/07 12:45:10;;;;;;;;;;;;;;;;;;5012430;28;1251;-69
2022/07/07 12:47:42;;;;;;;;;;;;;;;;;;5012817;28;1056;-69
2022/07/07 12:50:09;;;;;;;;;;;;;;;;;;5011797;28;1432;-70
2022/07/07 12:52:35;;;;;;;;;;;;;;;;;;5013296;28;1111;-69
2022/07/07 12:55:06;;;;;;;;;;;;;;;;;;5013612;28;1910;-70
2022/07/07 12:57:32;;;;;;;;;;;;;;;;;;5012760;28;1286;-69
2022/07/07 12:59:58;;;;;;;;;;;;;;;;;;5012572;28;1231;-69
2022/07/07 13:02:26;;;;;;;;;;;;;;;;;;5013246;28;1299;-69
2022/07/07 13:04:53;;;;;;;;;;;;;;;;;;5013138;28;871;-69
2022/07/07 13:07:22;;;;;;;;;;;;;;;;;;5011365;28;1137;-69
2022/07/07 13:09:48;;;;;;;;;;;;;;;;;;5012859;28;1032;-70
2022/07/07 13:12:14;;;;;;;;;;;;;;;;;;5012797;28;1405;-69
2022/07/07 13:14:41;;;;;;;;;;;;;;;;;;5012723;28;1060;-69
2022/07/07 13:17:07;;;;;;;;;;;;;;;;;;5012116;28;1922;-69
2022/07/07 13:19:34;;;;;;;;;;;;;;;;;;5013151;28;1028;-69
2022/07/07 13:22:01;;;;;;;;;;;;;;;;;;5011580;28;1437;-69
2022/07/07 13:24:27;;;;;;;;;;;;;;;;;;5013302;28;1119;-69
2022/07/07 13:26:53;;;;;;;;;;;;;;;;;;5012457;28;1239;-70
2022/07/07 13:29:19;;;;;;;;;;;;;;;;;;5012754;28;1032;-69
2022/07/07 13:31:46;;;;;;;;;;;;;;;;;;5012719;28;1259;-69
2022/07/07 13:34:12;;;;;;;;;;;;;;;;;;5011779;28;1272;-70
2022/07/07 13:36:40;;;;;;;;;;;;;;;;;;5012127;28;1970;-69
2022/07/07 13:39:06;;;;;;;;;;;;;;;;;;5012599;28;914;-69
2022/07/07 13:41:32;;;;;;;;;;;;;;;;;;5012551;28;1408;-70
2022/07/07 13:43:58;;;;;;;;;;;;;;;;;;5011502;28;1335;-70
2022/07/07 13:46:25;;;;;;;;;;;;;;;;;;5012248;28;1048;-69
2022/07/07 13:48:51;;;;;;;;;;;;;;;;;;5012555;28;1107;-69
2022/07/07 13:51:17;;;;;;;;;;;;;;;;;;5010458;28;1893;-69
2022/07/07 13:53:45;;;;;;;;;;;;;;;;;;5008588;28;1505;-69
2022/07/07 13:56:11;;;;;;;;;;;;;;;;;;5009632;28;1981;-69
2022/07/07 13:58:37;;;;;;;;;;;;;;;;;;5011800;28;1206;-69
2022/07/07 14:01:03;;;;;;;;;;;;;;;;;;5012678;28;1378;-70
2022/07/07 14:03:30;;;;;;;;;;;;;;;;;;5010700;28;1196;-69
2022/07/07 14:05:56;;;;;;;;;;;;;;;;;;5011911;28;985;-69
2022/07/07 14:08:22;;;;;;;;;;;;;;;;;;5010416;28;1535;-70
2022/07/07 14:10:49;;;;;;;;;;;;;;;;;;5011260;28;1314;-69
2022/07/07 14:13:16;;;;;;;;;;;;;;;;;;5011294;28;1072;-69
2022/07/07 14:15:45;;;;;;;;;;;;;;;;;;5009333;28;1914;-69
2022/07/07 14:18:11;;;;;;;;;;;;;;;;;;5008568;28;1383;-69
2022/07/07 14:20:37;;;;;;;;;;;;;;;;;;5011506;28;1334;-70
2022/07/07 14:23:03;;;;;;;;;;;;;;;;;;5004266;28;1515;-71
2022/07/07 14:25:30;;;;;;;;;;;;;;;;;;5009484;28;1339;-70
2022/07/07 14:27:57;;;;;;;;;;;;;;;;;;5015962;28;1198;-70
2022/07/07 14:30:24;;;;;;;;;;;;;;;;;;5011674;28;1377;-70
2022/07/07 14:32:50;;;;;;;;;;;;;;;;;;5004361;28;1668;-70
2022/07/07 14:35:17;;;;;;;;;;;;;;;;;;5006948;28;1420;-70
2022/07/07 14:37:43;;;;;;;;;;;;;;;;;;5010787;28;1926;-70
2022/07/07 14:40:09;;;;;;;;;;;;;;;;;;5019003;28;1325;-70
2022/07/07 14:42:35;;;;;;;;;;;;;;;;;;5028286;28;1389;-70
2022/07/07 14:45:03;;;;;;;;;;;;;;;;;;5007986;28;1321;-70
2022/07/07 14:47:30;;;;;;;;;;;;;;;;;;5004838;28;1405;-69
2022/07/07 14:49:56;;;;;;;;;;;;;;;;;;5010469;28;1135;-70
2022/07/07 14:52:22;;;;;;;;;;;;;;;;;;5024427;28;1263;-70
2022/07/07 14:54:49;;;;;;;;;;;;;;;;;;5015212;28;1431;-70
2022/07/07 14:57:15;;;;;;;;;;;;;;;;;;5013156;28;1971;-69
2022/07/07 14:59:41;;;;;;;;;;;;;;;;;;5008865;28;1459;-69
2022/07/07 15:02:09;;;;;;;;;;;;;;;;;;5010140;28;1315;-70
2022/07/07 15:04:35;;;;;;;;;;;;;;;;;;5010251;28;964;-70
2022/07/07 15:07:01;;;;;;;;;;;;;;;;;;5009114;28;1353;-70
2022/07/07 15:09:27;;;;;;;;;;;;;;;;;;4997010;28;1146;-70
2022/07/07 15:11:55;;;;;;;;;;;;;;;;;;4990415;28;1338;-70
2022/07/07 15:14:22;;;;;;;;;;;;;;;;;;4990589;28;1072;-70
2022/07/07 15:16:48;;;;;;;;;;;;;;;;;;5002971;28;1981;-70
2022/07/07 15:19:16;;;;;;;;;;;;;;;;;;4998158;28;1119;-69
2022/07/07 15:21:43;;;;;;;;;;;;;;;;;;4990047;28;1414;-69
2022/07/07 15:24:09;;;;;;;;;;;;;;;;;;4994941;28;1397;-69
2022/07/07 15:26:35;;;;;;;;;;;;;;;;;;5003012;28;1393;-69
2022/07/07 15:29:01;;;;;;;;;;;;;;;;;;5015959;28;1330;-69
2022/07/07 15:31:28;;;;;;;;;;;;;;;;;;5004027;28;1561;-70
2022/07/07 15:33:54;;;;;;;;;;;;;;;;;;5006102;28;1230;-69
2022/07/07 15:36:21;;;;;;;;;;;;;;;;;;5009677;28;1981;-69
2022/07/07 15:38:48;;;;;;;;;;;;;;;;;;5015862;28;1256;-69
2022/07/07 15:41:14;;;;;;;;;;;;;;;;;;5016759;28;1313;-69
2022/07/07 15:43:41;;;;;;;;;;;;;;;;;;5016372;28;1119;-69
2022/07/07 15:46:07;;;;;;;;;;;;;;;;;;5016026;28;890;-69
2022/07/07 15:48:34;;;;;;;;;;;;;;;;;;5016818;28;1088;-69
2022/07/07 15:51:00;;;;;;;;;;;;;;;;;;5016407;28;1292;-69
2022/07/07 15:53:29;;;;;;;;;;;;;;;;;;5014171;28;1403;-69
2022/07/07 15:55:56;;;;;;;;;;;;;;;;;;5016244;28;2254;-70
2022/07/07 15:58:22;;;;;;;;;;;;;;;;;;5016189;28;1535;-70
2022/07/07 16:00:48;;;;;;;;;;;;;;;;;;5014615;28;1329;-70
2022/07/07 16:03:14;;;;;;;;;;;;;;;;;;5016438;28;1375;-70
2022/07/07 16:05:40;;;;;;;;;;;;;;;;;;5009847;28;1408;-69
2022/07/07 16:08:06;;;;;;;;;;;;;;;;;;5012922;28;1359;-70
2022/07/07 16:10:34;;;;;;;;;;;;;;;;;;5015225;28;1387;-70
2022/07/07 16:13:01;;;;;;;;;;;;;;;;;;5008676;28;1206;-70
2022/07/07 16:15:27;;;;;;;;;;;;;;;;;;5015914;28;1523;-70
2022/07/07 16:17:53;;;;;;;;;;;;;;;;;;5015620;28;1981;-69
2022/07/07 16:20:21;;;;;;;;;;;;;;;;;;5024366;28;1455;-70
2022/07/07 16:22:47;;;;;;;;;;;;;;;;;;5017229;28;1150;-70
2022/07/07 16:25:13;;;;;;;;;;;;;;;;;;5017524;28;929;-70
2022/07/07 16:27:41;;;;;;;;;;;;;;;;;;5015293;28;1271;-70
2022/07/07 16:30:07;;;;;;;;;;;;;;;;;;5016080;28;1520;-69
2022/07/07 16:32:34;;;;;;;;;;;;;;;;;;5007919;28;1423;-70
2022/07/07 16:35:00;;;;;;;;;;;;;;;;;;5015483;28;1171;-69
2022/07/07 16:37:26;;;;;;;;;;;;;;;;;;4996867;28;1966;-70
2022/07/07 16:39:53;;;;;;;;;;;;;;;;;;5009890;28;1375;-70
2022/07/07 16:42:19;;;;;;;;;;;;;;;;;;5004901;28;1294;-70
2022/07/07 16:44:46;;;;;;;;;;;;;;;;;;4997611;28;1408;-70
2022/07/07 16:47:13;;;;;;;;;;;;;;;;;;4996919;28;1049;-69
2022/07/07 16:49:39;;;;;;;;;;;;;;;;;;5006080;28;1433;-69
2022/07/07 16:52:05;;;;;;;;;;;;;;;;;;5003451;28;1413;-70
2022/07/07 16:54:31;;;;;;;;;;;;;;;;;;4994454;28;1068;-70
2022/07/07 16:56:58;;;;;;;;;;;;;;;;;;4992648;28;1918;-70
2022/07/07 16:59:24;;;;;;;;;;;;;;;;;;5009382;28;1490;-69
2022/07/07 17:01:52;;;;;;;;;;;;;;;;;;5012630;28;1424;-70
2022/07/07 17:04:18;;;;;;;;;;;;;;;;;;5011548;28;1431;-70